createdAt,value
2023-03-12T00:02:17.456Z,97696.03
2023-03-12T00:04:47.069Z,97689.97
2023-03-12T00:07:17.624Z,97694.44
2023-03-12T00:09:47.741Z,97717.88
2023-03-12T00:12:18.049Z,97711.28
2023-03-12T00:14:48.471Z,97726.00
2023-03-12T00:17:18.001Z,97711.63
2023-03-12T00:19:51.244Z,97719.38
2023-03-12T00:22:17.731Z,97711.22
2023-03-12T00:24:46.469Z,97714.06
2023-03-12T00:27:12.990Z,97710.94
2023-03-12T00:29:39.445Z,97728.78
2023-03-12T00:32:06.330Z,97720.16
2023-03-12T00:34:32.828Z,97732.06
2023-03-12T00:36:59.319Z,97731.09
2023-03-12T00:39:25.972Z,97728.78
2023-03-12T00:41:52.454Z,97735.72
2023-03-12T00:44:19.697Z,97744.31
2023-03-12T00:46:47.769Z,97725.34
2023-03-12T00:49:14.274Z,97739.50
2023-03-12T00:51:42.432Z,97744.31
2023-03-12T00:54:09.246Z,97749.41
2023-03-12T00:56:35.733Z,97749.63
2023-03-12T00:59:02.220Z,97758.91
2023-03-12T01:01:28.725Z,97760.38
2023-03-12T01:03:55.838Z,97762.28
2023-03-12T01:06:22.355Z,97747.56
2023-03-12T01:08:51.708Z,97771.47
2023-03-12T01:11:21.640Z,97760.38
2023-03-12T01:13:51.127Z,97759.72
2023-03-12T01:16:20.899Z,97761.19
2023-03-12T01:18:49.889Z,97740.84
2023-03-12T01:21:16.382Z,97757.69
2023-03-12T01:23:43.590Z,97762.66
2023-03-12T01:26:10.019Z,97746.13
2023-03-12T01:28:36.605Z,97760.44
2023-03-12T01:31:10.676Z,97763.91
2023-03-12T01:33:37.314Z,97765.41
2023-03-12T01:36:04.663Z,97756.16
2023-03-12T01:38:31.271Z,97766.47
2023-03-12T01:40:57.718Z,97772.34
2023-03-12T01:43:31.525Z,97757.31
2023-03-12T01:46:24.246Z,97781.63
2023-03-12T01:49:14.300Z,97770.91
2023-03-12T01:51:56.766Z,97781.97
2023-03-12T01:54:33.333Z,97767.94
2023-03-12T01:57:02.736Z,97760.88
2023-03-12T01:59:38.274Z,97752.97
2023-03-12T02:02:06.640Z,97763.63
2023-03-12T02:04:33.780Z,97757.75
2023-03-12T02:07:10.556Z,97759.53
2023-03-12T02:09:42.414Z,97758.69
2023-03-12T02:12:09.694Z,97762.47
2023-03-12T02:14:37.022Z,97739.53
2023-03-12T02:17:04.058Z,97734.44
2023-03-12T02:19:52.492Z,97745.09
2023-03-12T02:22:22.698Z,97753.50
2023-03-12T02:25:03.720Z,97763.78
2023-03-12T02:27:34.139Z,97753.50
2023-03-12T02:30:01.593Z,97770.34
2023-03-12T02:32:33.116Z,97758.28
2023-03-12T02:35:00.412Z,97759.97
2023-03-12T02:37:26.958Z,97752.88
2023-03-12T02:40:05.883Z,97765.13
2023-03-12T02:42:33.483Z,97767.44
2023-03-12T02:45:01.271Z,97777.72
2023-03-12T02:47:27.722Z,97772.38
2023-03-12T02:49:57.140Z,97765.81
2023-03-12T02:52:27.100Z,97773.44
2023-03-12T02:54:56.553Z,97769.16
2023-03-12T02:57:26.144Z,97763.41
2023-03-12T02:59:54.998Z,97764.88
2023-03-12T03:02:21.511Z,97759.94
2023-03-12T03:04:48.022Z,97768.03
2023-03-12T03:07:14.908Z,97764.63
2023-03-12T03:09:41.460Z,97774.00
2023-03-12T03:12:08.126Z,97774.53
2023-03-12T03:14:34.608Z,97768.94
2023-03-12T03:17:01.174Z,97783.63
2023-03-12T03:19:27.636Z,97793.88
2023-03-12T03:21:57.598Z,97779.34
2023-03-12T03:24:26.188Z,97802.94
2023-03-12T03:26:52.673Z,97789.72
2023-03-12T03:29:19.330Z,97790.41
2023-03-12T03:31:45.953Z,97801.13
2023-03-12T03:34:12.792Z,97792.72
2023-03-12T03:36:39.298Z,97802.94
2023-03-12T03:39:05.846Z,97819.81
2023-03-12T03:41:33.012Z,97828.56
2023-03-12T03:43:59.748Z,97819.66
2023-03-12T03:46:26.829Z,97829.13
2023-03-12T03:48:53.385Z,97823.50
2023-03-12T03:51:20.085Z,97813.06
2023-03-12T03:53:46.625Z,97825.44
2023-03-12T03:56:15.949Z,97825.78
2023-03-12T03:58:42.628Z,97817.06
2023-03-12T04:01:09.497Z,97828.44
2023-03-12T04:03:36.140Z,97813.94
2023-03-12T04:06:05.048Z,97827.31
2023-03-12T04:08:32.964Z,97826.00
2023-03-12T04:10:59.454Z,97828.28
2023-03-12T04:13:28.794Z,97830.78
2023-03-12T04:15:57.872Z,97821.53
2023-03-12T04:18:24.355Z,97826.97
2023-03-12T04:20:50.846Z,97840.38
2023-03-12T04:23:17.300Z,97834.25
2023-03-12T04:25:43.738Z,97854.91
2023-03-12T04:28:10.265Z,97851.78
2023-03-12T04:30:38.231Z,97840.00
2023-03-12T04:33:06.071Z,97840.50
2023-03-12T04:35:32.690Z,97847.38
2023-03-12T04:38:01.514Z,97854.50
2023-03-12T04:40:30.912Z,97844.59
2023-03-12T04:43:01.703Z,97844.75
2023-03-12T04:45:31.264Z,97851.69
2023-03-12T04:48:01.792Z,97839.84
2023-03-12T04:50:31.281Z,97839.84
2023-03-12T04:53:01.892Z,97847.25
2023-03-12T04:55:31.907Z,97855.25
2023-03-12T04:58:01.886Z,97858.38
2023-03-12T05:00:32.400Z,97866.19
2023-03-12T05:03:02.757Z,97877.22
2023-03-12T05:05:32.723Z,97883.69
2023-03-12T05:08:04.767Z,97867.16
2023-03-12T05:10:32.076Z,97873.56
2023-03-12T05:13:02.118Z,97875.03
2023-03-12T05:15:29.754Z,97873.91
2023-03-12T05:17:56.248Z,97881.00
2023-03-12T05:20:22.716Z,97891.91
2023-03-12T05:22:49.217Z,97886.47
2023-03-12T05:25:15.782Z,97897.09
2023-03-12T05:27:42.294Z,97903.19
2023-03-12T05:30:09.799Z,97894.56
2023-03-12T05:32:38.238Z,97906.03
2023-03-12T05:35:05.414Z,97903.00
2023-03-12T05:37:35.209Z,97903.38
2023-03-12T05:40:05.059Z,97922.72
2023-03-12T05:42:34.588Z,97921.56
2023-03-12T05:45:04.386Z,97912.28
2023-03-12T05:47:31.900Z,97910.47
2023-03-12T05:49:58.376Z,97910.16
2023-03-12T05:52:24.849Z,97907.81
2023-03-12T05:54:53.136Z,97905.16
2023-03-12T05:57:19.690Z,97904.84
2023-03-12T05:59:46.193Z,97898.59
2023-03-12T06:02:12.791Z,97904.72
2023-03-12T06:04:39.378Z,97918.75
2023-03-12T06:07:05.914Z,97939.44
2023-03-12T06:09:32.518Z,97933.19
2023-03-12T06:11:59.002Z,97929.22
2023-03-12T06:14:25.691Z,97936.81
2023-03-12T06:16:52.224Z,97930.84
2023-03-12T06:19:18.967Z,97934.84
2023-03-12T06:21:45.530Z,97948.22
2023-03-12T06:24:12.081Z,97946.06
2023-03-12T06:26:38.951Z,97934.41
2023-03-12T06:29:05.436Z,97914.41
2023-03-12T06:31:37.305Z,97927.31
2023-03-12T06:34:05.592Z,97926.16
2023-03-12T06:36:35.192Z,97933.09
2023-03-12T06:39:08.181Z,97942.69
2023-03-12T06:41:34.611Z,97946.13
2023-03-12T06:44:05.939Z,97951.91
2023-03-12T06:46:33.050Z,97941.97
2023-03-12T06:48:59.811Z,97957.53
2023-03-12T06:51:27.277Z,97957.72
2023-03-12T06:53:53.829Z,97963.69
2023-03-12T06:56:20.359Z,97952.25
2023-03-12T06:58:50.195Z,97964.50
2023-03-12T07:01:16.680Z,97974.88
2023-03-12T07:03:43.168Z,97972.75
2023-03-12T07:06:17.715Z,97984.44
2023-03-12T07:08:44.698Z,97966.06
2023-03-12T07:11:11.227Z,97979.28
2023-03-12T07:13:37.743Z,97979.94
2023-03-12T07:16:05.112Z,97989.53
2023-03-12T07:18:35.266Z,97986.06
2023-03-12T07:21:02.921Z,97999.47
2023-03-12T07:23:32.203Z,98014.09
2023-03-12T07:25:58.697Z,97993.56
2023-03-12T07:28:25.191Z,98005.84
2023-03-12T07:30:51.693Z,98017.63
2023-03-12T07:33:20.484Z,98025.09
2023-03-12T07:35:50.182Z,98029.56
2023-03-12T07:38:18.108Z,98009.84
2023-03-12T07:40:44.890Z,98018.69
2023-03-12T07:43:12.752Z,98030.81
2023-03-12T07:45:39.514Z,98024.53
2023-03-12T07:48:06.933Z,98019.97
2023-03-12T07:50:34.231Z,98026.28
2023-03-12T07:53:04.682Z,98002.09
2023-03-12T07:55:35.413Z,98024.78
2023-03-12T07:58:05.075Z,98039.50
2023-03-12T08:00:35.675Z,98032.91
2023-03-12T08:03:05.147Z,98013.06
2023-03-12T08:05:34.643Z,98028.47
2023-03-12T08:08:04.097Z,98044.69
2023-03-12T08:10:33.616Z,98035.81
2023-03-12T08:13:02.318Z,98044.53
2023-03-12T08:15:28.877Z,98040.41
2023-03-12T08:17:55.368Z,98035.44
2023-03-12T08:20:21.860Z,98044.38
2023-03-12T08:22:48.606Z,98046.53
2023-03-12T08:25:18.635Z,98044.16
2023-03-12T08:27:45.085Z,98033.56
2023-03-12T08:30:12.562Z,98036.50
2023-03-12T08:32:39.333Z,98051.47
2023-03-12T08:35:06.312Z,98040.94
2023-03-12T08:37:33.005Z,98060.00
2023-03-12T08:40:02.247Z,98057.13
2023-03-12T08:42:28.715Z,98049.84
2023-03-12T08:44:55.194Z,98072.19
2023-03-12T08:47:21.672Z,98063.22
2023-03-12T08:49:48.222Z,98065.91
2023-03-12T08:52:14.771Z,98074.88
2023-03-12T08:54:41.313Z,98079.44
2023-03-12T08:57:07.853Z,98083.50
2023-03-12T08:59:34.353Z,98084.50
2023-03-12T09:02:02.499Z,98088.38
2023-03-12T09:04:28.949Z,98073.06
2023-03-12T09:06:55.420Z,98091.75
2023-03-12T09:09:21.976Z,98097.78
2023-03-12T09:11:48.446Z,98086.56
2023-03-12T09:14:57.630Z,98091.97
2023-03-12T09:17:04.420Z,98079.56
2023-03-12T09:19:33.910Z,98092.56
2023-03-12T09:22:03.784Z,98093.09
2023-03-12T09:24:30.878Z,98099.00
2023-03-12T09:26:57.398Z,98091.63
2023-03-12T09:29:24.765Z,98103.44
2023-03-12T09:31:51.923Z,98101.31
2023-03-12T09:34:18.450Z,98100.88
2023-03-12T09:36:44.894Z,98095.94
2023-03-12T09:39:11.457Z,98111.38
2023-03-12T09:41:40.756Z,98100.31
2023-03-12T09:44:45.217Z,98115.09
2023-03-12T09:47:28.175Z,98116.78
2023-03-12T09:50:19.917Z,98124.44
2023-03-12T09:52:57.765Z,98117.88
2023-03-12T09:55:25.223Z,98104.88
2023-03-12T09:57:53.024Z,98108.13
2023-03-12T10:00:27.027Z,98105.41
2023-03-12T10:03:05.302Z,98094.94
2023-03-12T10:06:20.370Z,98093.75
2023-03-12T10:09:29.565Z,98089.69
2023-03-12T10:12:24.379Z,98092.94
2023-03-12T10:15:22.433Z,98088.41
2023-03-12T10:18:10.460Z,98083.94
2023-03-12T10:20:51.793Z,98086.16
2023-03-12T10:23:24.704Z,98081.38
2023-03-12T10:26:02.726Z,98077.72
2023-03-12T10:28:36.071Z,98081.28
2023-03-12T10:31:12.686Z,98091.41
2023-03-12T10:33:50.300Z,98097.94
2023-03-12T10:36:38.068Z,98098.63
2023-03-12T10:39:16.954Z,98089.44
2023-03-12T10:41:46.224Z,98106.31
2023-03-12T10:44:24.301Z,98092.16
2023-03-12T10:47:09.403Z,98097.66
2023-03-12T10:49:37.838Z,98089.00
2023-03-12T10:52:07.102Z,98102.59
2023-03-12T10:54:43.815Z,98101.44
2023-03-12T10:57:12.043Z,98096.88
2023-03-12T10:59:44.460Z,98094.31
2023-03-12T11:02:39.787Z,98092.34
2023-03-12T11:05:22.131Z,98082.53
2023-03-12T11:07:49.109Z,98080.91
2023-03-12T11:10:20.018Z,98072.44
2023-03-12T11:13:35.076Z,98077.75
2023-03-12T11:16:16.602Z,98083.78
2023-03-12T11:18:57.622Z,98086.91
2023-03-12T11:21:24.444Z,98088.06
2023-03-12T11:23:57.905Z,98087.41
2023-03-12T11:26:47.258Z,98088.34
2023-03-12T11:29:39.908Z,98082.34
2023-03-12T11:32:12.735Z,98083.31
2023-03-12T11:34:39.832Z,98085.09
2023-03-12T11:37:34.545Z,98073.50
2023-03-12T11:40:11.989Z,98083.94
2023-03-12T11:42:57.304Z,98074.97
2023-03-12T11:45:26.506Z,98072.66
2023-03-12T11:47:59.066Z,98067.88
2023-03-12T11:50:47.199Z,98063.25
2023-03-12T11:53:42.893Z,98065.78
2023-03-12T11:56:24.912Z,98076.06
2023-03-12T11:59:32.955Z,98071.31
2023-03-12T12:02:18.356Z,98083.91
2023-03-12T12:05:03.316Z,98063.91
2023-03-12T12:07:58.249Z,98061.16
2023-03-12T12:10:37.785Z,98061.22
2023-03-12T12:13:04.342Z,98060.13
2023-03-12T12:15:45.641Z,98058.88
2023-03-12T12:18:15.040Z,98051.53
2023-03-12T12:21:07.837Z,98041.19
2023-03-12T12:24:03.494Z,98047.72
2023-03-12T12:26:48.037Z,98046.94
2023-03-12T12:29:40.459Z,98023.66
2023-03-12T12:32:17.668Z,98019.91
2023-03-12T12:34:49.283Z,98011.53
2023-03-12T12:37:55.647Z,98016.47
2023-03-12T12:40:39.783Z,98000.38
2023-03-12T12:43:18.374Z,98004.72
2023-03-12T12:45:48.026Z,98000.09
2023-03-12T12:48:46.491Z,98004.81
2023-03-12T12:51:15.653Z,97989.03
2023-03-12T12:54:16.689Z,97981.31
2023-03-12T12:56:58.818Z,97966.25
2023-03-12T12:59:53.420Z,97960.56
2023-03-12T13:02:23.298Z,97965.16
2023-03-12T13:04:50.180Z,97956.88
2023-03-12T13:07:16.635Z,97950.75
2023-03-12T13:09:50.457Z,97950.78
2023-03-12T13:12:35.738Z,97946.50
2023-03-12T13:15:21.863Z,97935.22
2023-03-12T13:18:28.045Z,97940.59
2023-03-12T13:20:54.496Z,97935.78
2023-03-12T13:23:45.173Z,97933.72
2023-03-12T13:26:19.512Z,97925.06
2023-03-12T13:28:56.886Z,97924.72
2023-03-12T13:31:30.156Z,97912.31
2023-03-12T13:33:57.337Z,97916.34
2023-03-12T13:36:28.257Z,97915.88
2023-03-12T13:39:18.676Z,97912.66
2023-03-12T13:41:45.104Z,97895.00
2023-03-12T13:44:23.313Z,97896.72
2023-03-12T13:47:10.891Z,97892.28
2023-03-12T13:49:41.977Z,97889.06
2023-03-12T13:52:14.475Z,97911.91
2023-03-12T13:54:45.642Z,97905.75
2023-03-12T13:57:25.959Z,97891.63
2023-03-12T13:59:52.864Z,97904.97
2023-03-12T14:03:08.922Z,97904.66
2023-03-12T14:05:50.796Z,97892.56
2023-03-12T14:08:49.565Z,97891.38
2023-03-12T14:11:40.460Z,97895.00
2023-03-12T14:14:12.873Z,97892.22
2023-03-12T14:16:45.994Z,97885.44
2023-03-12T14:19:14.297Z,97880.72
2023-03-12T14:21:44.692Z,97875.28
2023-03-12T14:24:26.058Z,97867.53
2023-03-12T14:26:54.048Z,97867.88
2023-03-12T14:29:44.139Z,97871.09
2023-03-12T14:32:20.920Z,97874.84
2023-03-12T14:34:54.226Z,97866.09
2023-03-12T14:37:29.396Z,97842.34
2023-03-12T14:40:00.521Z,97848.47
2023-03-12T14:42:39.261Z,97850.75
2023-03-12T14:45:21.005Z,97852.31
2023-03-12T14:47:52.714Z,97846.34
2023-03-12T14:50:26.781Z,97855.09
2023-03-12T14:52:54.777Z,97849.50
2023-03-12T14:55:26.279Z,97842.06
2023-03-12T14:58:17.466Z,97837.78
2023-03-12T15:00:46.019Z,97843.81
2023-03-12T15:03:16.579Z,97850.94
2023-03-12T15:05:48.226Z,97848.38
2023-03-12T15:08:15.186Z,97832.16
2023-03-12T15:10:49.266Z,97816.72
2023-03-12T15:13:17.109Z,97826.78
2023-03-12T15:15:47.660Z,97837.91
2023-03-12T15:18:21.327Z,97833.63
2023-03-12T15:20:49.369Z,97834.56
2023-03-12T15:23:18.453Z,97839.41
2023-03-12T15:25:45.452Z,97836.53
2023-03-12T15:28:14.798Z,97834.97
2023-03-12T15:30:43.136Z,97828.38
2023-03-12T15:33:24.600Z,97828.47
2023-03-12T15:36:17.182Z,97825.63
2023-03-12T15:38:47.256Z,97814.97
2023-03-12T15:41:42.785Z,97799.19
2023-03-12T15:44:21.819Z,97818.34
2023-03-12T15:46:51.020Z,97804.75
2023-03-12T15:49:26.885Z,97804.22
2023-03-12T15:52:05.532Z,97815.13
2023-03-12T15:54:41.385Z,97819.16
2023-03-12T15:57:25.885Z,97813.72
2023-03-12T16:00:14.103Z,97805.16
2023-03-12T16:02:52.293Z,97806.34
2023-03-12T16:05:22.399Z,97812.06
2023-03-12T16:07:49.782Z,97824.63
2023-03-12T16:10:19.236Z,97821.00
2023-03-12T16:12:47.358Z,97825.47
2023-03-12T16:15:16.229Z,97822.13
2023-03-12T16:17:43.222Z,97841.94
2023-03-12T16:20:14.119Z,97833.38
2023-03-12T16:22:41.282Z,97824.75
2023-03-12T16:25:12.540Z,97834.75
2023-03-12T16:27:49.794Z,97822.22
2023-03-12T16:30:20.606Z,97835.03
2023-03-12T16:32:47.235Z,97832.19
2023-03-12T16:35:17.541Z,97830.59
2023-03-12T16:37:44.508Z,97842.63
2023-03-12T16:40:14.458Z,97845.78
2023-03-12T16:42:48.857Z,97845.50
2023-03-12T16:45:17.426Z,97834.78
2023-03-12T16:47:45.278Z,97840.13
2023-03-12T16:50:17.618Z,97836.47
2023-03-12T16:52:48.006Z,97834.25
2023-03-12T16:55:15.100Z,97842.09
2023-03-12T16:57:51.608Z,97822.03
2023-03-12T17:00:29.508Z,97832.09
2023-03-12T17:03:00.646Z,97825.78
2023-03-12T17:05:28.977Z,97812.03
2023-03-12T17:07:56.256Z,97824.41
2023-03-12T17:10:24.574Z,97808.63
2023-03-12T17:12:53.021Z,97823.47
2023-03-12T17:15:26.207Z,97820.81
2023-03-12T17:17:55.619Z,97818.81
2023-03-12T17:20:24.552Z,97800.13
2023-03-12T17:22:51.354Z,97807.53
2023-03-12T17:25:24.729Z,97809.59
2023-03-12T17:27:52.778Z,97813.31
2023-03-12T17:30:20.877Z,97803.44
2023-03-12T17:32:48.461Z,97794.84
2023-03-12T17:35:15.177Z,97801.19
2023-03-12T17:37:48.516Z,97790.91
2023-03-12T17:40:16.290Z,97816.13
2023-03-12T17:42:42.881Z,97809.53
2023-03-12T17:45:12.257Z,97820.81
2023-03-12T17:47:39.161Z,97824.53
2023-03-12T17:50:06.992Z,97827.38
2023-03-12T17:52:33.985Z,97830.22
2023-03-12T17:55:01.217Z,97833.69
2023-03-12T17:57:28.133Z,97829.50
2023-03-12T17:59:54.548Z,97829.41
2023-03-12T18:02:21.542Z,97834.69
2023-03-12T18:04:48.103Z,97834.38
2023-03-12T18:07:14.850Z,97832.38
2023-03-12T18:09:43.128Z,97847.09
2023-03-12T18:12:14.224Z,97835.84
2023-03-12T18:14:43.856Z,97810.22
2023-03-12T18:17:11.719Z,97840.88
2023-03-12T18:19:38.361Z,97839.47
2023-03-12T18:22:07.033Z,97835.66
2023-03-12T18:24:34.385Z,97848.50
2023-03-12T18:27:01.441Z,97829.72
2023-03-12T18:29:28.311Z,97856.50
2023-03-12T18:31:54.832Z,97838.09
2023-03-12T18:34:23.529Z,97840.38
2023-03-12T18:36:50.375Z,97841.16
2023-03-12T18:39:16.883Z,97852.50
2023-03-12T18:41:43.679Z,97857.97
2023-03-12T18:44:12.833Z,97853.84
2023-03-12T18:46:39.414Z,97843.66
2023-03-12T18:49:08.395Z,97830.91
2023-03-12T18:51:35.908Z,97842.59
2023-03-12T18:54:02.482Z,97843.81
2023-03-12T18:56:29.075Z,97821.69
2023-03-12T18:58:55.815Z,97830.91
2023-03-12T19:01:22.391Z,97808.63
2023-03-12T19:03:48.900Z,97829.75
2023-03-12T19:06:16.745Z,97846.94
2023-03-12T19:08:43.886Z,97851.22
2023-03-12T19:11:15.798Z,97842.97
2023-03-12T19:13:45.209Z,97844.41
2023-03-12T19:16:18.753Z,97849.66
2023-03-12T19:18:45.440Z,97855.66
2023-03-12T19:21:15.476Z,97855.19
2023-03-12T19:23:44.906Z,97852.34
2023-03-12T19:26:14.672Z,97860.19
2023-03-12T19:29:23.133Z,97854.50
2023-03-12T19:32:02.516Z,97857.53
2023-03-12T19:34:29.608Z,97811.19
2023-03-12T19:36:56.364Z,97861.09
2023-03-12T19:39:23.182Z,97845.56
2023-03-12T19:41:50.935Z,97858.59
2023-03-12T19:44:17.519Z,97856.13
2023-03-12T19:46:47.153Z,97842.00
2023-03-12T19:49:14.902Z,97846.81
2023-03-12T19:51:46.030Z,97836.69
2023-03-12T19:54:12.572Z,97849.22
2023-03-12T19:56:39.366Z,97835.25
2023-03-12T19:59:08.281Z,97855.63
2023-03-12T20:01:34.970Z,97851.94
2023-03-12T20:04:01.596Z,97836.13
2023-03-12T20:06:28.055Z,97845.34
2023-03-12T20:08:54.541Z,97858.44
2023-03-12T20:11:21.073Z,97859.19
2023-03-12T20:13:47.554Z,97852.66
2023-03-12T20:16:14.421Z,97832.22
2023-03-12T20:18:40.938Z,97832.59
2023-03-12T20:21:07.433Z,97845.44
2023-03-12T20:23:34.274Z,97834.03
2023-03-12T20:26:00.733Z,97852.28
2023-03-12T20:28:27.308Z,97842.03
2023-03-12T20:30:56.350Z,97842.91
2023-03-12T20:33:22.826Z,97862.16
2023-03-12T20:35:50.519Z,97857.53
2023-03-12T20:38:17.370Z,97853.81
2023-03-12T20:40:46.708Z,97852.16
2023-03-12T20:43:14.338Z,97843.09
2023-03-12T20:45:40.921Z,97855.19
2023-03-12T20:48:07.595Z,97839.78
2023-03-12T20:50:37.713Z,97843.72
2023-03-12T20:53:04.259Z,97830.91
2023-03-12T20:55:30.806Z,97837.06
2023-03-12T20:57:57.294Z,97822.88
2023-03-12T21:00:24.055Z,97813.13
2023-03-12T21:02:50.670Z,97822.88
2023-03-12T21:05:17.278Z,97843.06
2023-03-12T21:07:45.159Z,97840.75
2023-03-12T21:10:14.254Z,97804.56
2023-03-12T21:12:44.171Z,97824.69
2023-03-12T21:15:15.464Z,97817.38
2023-03-12T21:17:44.278Z,97812.81
2023-03-12T21:20:16.618Z,97831.69
2023-03-12T21:22:47.409Z,97824.72
2023-03-12T21:25:16.643Z,97809.09
2023-03-12T21:27:51.053Z,97816.88
2023-03-12T21:30:18.557Z,97838.13
2023-03-12T21:32:45.199Z,97835.03
2023-03-12T21:35:12.593Z,97819.06
2023-03-12T21:37:39.721Z,97838.22
2023-03-12T21:40:07.790Z,97828.16
2023-03-12T21:42:34.718Z,97841.97
2023-03-12T21:45:01.212Z,97849.69
2023-03-12T21:47:27.773Z,97842.09
2023-03-12T21:49:54.222Z,97839.88
2023-03-12T21:52:20.718Z,97833.66
2023-03-12T21:54:47.352Z,97824.56
2023-03-12T21:57:16.818Z,97841.41
2023-03-12T21:59:43.847Z,97838.59
2023-03-12T22:02:16.843Z,97841.44
2023-03-12T22:04:43.974Z,97846.81
2023-03-12T22:07:10.793Z,97845.91
2023-03-12T22:09:37.343Z,97835.66
2023-03-12T22:12:04.098Z,97831.38
2023-03-12T22:14:30.626Z,97816.97
2023-03-12T22:16:57.145Z,97805.06
2023-03-12T22:19:24.372Z,97819.88
2023-03-12T22:21:50.883Z,97806.19
2023-03-12T22:24:17.343Z,97812.50
2023-03-12T22:26:46.475Z,97814.69
2023-03-12T22:29:13.177Z,97805.44
2023-03-12T22:31:39.761Z,97799.66
2023-03-12T22:34:06.431Z,97813.56
2023-03-12T22:36:33.465Z,97789.88
2023-03-12T22:38:59.936Z,97785.38
2023-03-12T22:41:28.826Z,97785.22
2023-03-12T22:43:57.526Z,97776.88
2023-03-12T22:46:25.572Z,97786.38
2023-03-12T22:48:54.313Z,97785.19
2023-03-12T22:51:21.122Z,97791.69
2023-03-12T22:53:50.625Z,97784.72
2023-03-12T22:56:20.250Z,97789.94
2023-03-12T22:58:51.144Z,97786.94
2023-03-12T23:01:22.633Z,97805.34
2023-03-12T23:03:52.935Z,97803.91
2023-03-12T23:06:23.004Z,97806.19
2023-03-12T23:08:51.388Z,97796.63
2023-03-12T23:11:25.282Z,97792.97
2023-03-12T23:13:53.231Z,97772.56
2023-03-12T23:16:23.502Z,97788.47
2023-03-12T23:18:53.683Z,97779.69
2023-03-12T23:21:23.441Z,97788.66
2023-03-12T23:23:56.382Z,97802.16
2023-03-12T23:26:28.713Z,97798.00
2023-03-12T23:28:57.519Z,97794.06
2023-03-12T23:31:25.183Z,97784.19
2023-03-12T23:33:52.117Z,97792.69
2023-03-12T23:36:23.819Z,97798.28
2023-03-12T23:38:51.114Z,97786.38
2023-03-12T23:41:22.060Z,97793.44
2023-03-12T23:43:52.159Z,97794.19
2023-03-12T23:46:22.007Z,97775.97
2023-03-12T23:48:53.145Z,97790.06
2023-03-12T23:51:26.014Z,97770.44
2023-03-12T23:53:56.252Z,97793.56
2023-03-12T23:56:24.309Z,97777.78
2023-03-12T23:58:54.117Z,97795.09
